Time;durP1;ratioP1;P1;durP2;ratioP2;P2;SDS_P1;SDS_P2;PMS_P1;PMS_P2;Temp;Humidity;BMP_temperature;BMP_pressure;BME280_temperature;BME280_humidity;BME280_pressure;Samples;Min_cycle;Max_cycle;Signal;HPM_P1;HPM_P2
2022/05/26 00:00:54;;;;;;;3.67;1.10;;;;;;;;;;5097163;28;20418;-75
2022/05/26 00:03:20;;;;;;;2.40;0.80;;;;;;;;;;5096572;28;20413;-76
2022/05/26 00:05:46;;;;;;;2.80;0.83;;;;;;;;;;5096971;28;20413;-75
2022/05/26 00:08:12;;;;;;;2.90;1.30;;;;;;;;;;5096920;28;20862;-76
2022/05/26 00:10:38;;;;;;;1.77;0.83;;;;;;;;;;5096961;28;20381;-75
2022/05/26 00:13:05;;;;;;;1.20;0.80;;;;;;;;;;5096365;28;20925;-77
2022/05/26 00:15:31;;;;;;;4.47;1.10;;;;;;;;;;5096648;28;20833;-75
2022/05/26 00:17:57;;;;;;;3.90;1.57;;;;;;;;;;5095673;28;20452;-74
2022/05/26 00:20:24;;;;;;;2.03;0.80;;;;;;;;;;5096927;28;20424;-75
2022/05/26 00:22:49;;;;;;;2.50;0.93;;;;;;;;;;5096705;28;20393;-76
2022/05/26 00:25:16;;;;;;;1.80;1.03;;;;;;;;;;5096148;28;20438;-76
2022/05/26 00:27:42;;;;;;;2.50;1.10;;;;;;;;;;5096329;28;20414;-76
2022/05/26 00:30:08;;;;;;;1.37;1.00;;;;;;;;;;5096197;28;20415;-74
2022/05/26 00:32:34;;;;;;;2.43;0.97;;;;;;;;;;5096271;28;20447;-75
2022/05/26 00:35:00;;;;;;;1.50;1.00;;;;;;;;;;5094582;28;20882;-77
2022/05/26 00:37:26;;;;;;;2.77;1.00;;;;;;;;;;5096021;28;20389;-76
2022/05/26 00:39:52;;;;;;;1.27;1.00;;;;;;;;;;5096028;28;20410;-76
2022/05/26 00:42:19;;;;;;;2.07;0.97;;;;;;;;;;5094796;28;20422;-76
2022/05/26 00:44:45;;;;;;;4.30;0.90;;;;;;;;;;5095471;28;20884;-74
2022/05/26 00:47:19;;;;;;;2.50;0.80;;;;;;;;;;5096179;28;20393;-77
2022/05/26 00:49:52;;;;;;;1.43;0.80;;;;;;;;;;5095931;28;20820;-75
2022/05/26 00:52:22;;;;;;;1.90;1.13;;;;;;;;;;5095949;28;20454;-74
2022/05/26 00:54:49;;;;;;;2.00;0.70;;;;;;;;;;5095694;28;20516;-74
2022/05/26 00:57:21;;;;;;;1.27;1.00;;;;;;;;;;5095987;28;20431;-77
2022/05/26 00:59:50;;;;;;;1.20;0.83;;;;;;;;;;5095802;28;20711;-76
2022/05/26 01:02:18;;;;;;;2.13;0.90;;;;;;;;;;5094740;28;20420;-77
2022/05/26 01:04:47;;;;;;;3.90;1.77;;;;;;;;;;5094855;28;20807;-75
2022/05/26 01:07:13;;;;;;;1.70;0.90;;;;;;;;;;5096018;28;20456;-76
2022/05/26 01:09:39;;;;;;;2.07;0.80;;;;;;;;;;5095866;28;20407;-76
2022/05/26 01:12:05;;;;;;;2.03;1.10;;;;;;;;;;5095629;28;20896;-77
2022/05/26 01:14:33;;;;;;;1.80;0.90;;;;;;;;;;5095301;28;20401;-75
2022/05/26 01:17:02;;;;;;;2.83;1.00;;;;;;;;;;5095626;28;20438;-75
2022/05/26 01:19:47;;;;;;;1.50;1.40;;;;;;;;;;5095612;28;20439;-75
2022/05/26 01:22:21;;;;;;;3.13;1.00;;;;;;;;;;5095343;28;20438;-74
2022/05/26 01:25:02;;;;;;;1.60;0.93;;;;;;;;;;5094811;28;20404;-76
2022/05/26 01:27:38;;;;;;;6.67;1.00;;;;;;;;;;5095409;28;20769;-76
2022/05/26 01:30:07;;;;;;;2.50;0.90;;;;;;;;;;5095283;28;20410;-75
2022/05/26 01:32:51;;;;;;;2.03;0.80;;;;;;;;;;5095275;28;20820;-75
2022/05/26 01:35:35;;;;;;;2.10;1.03;;;;;;;;;;5095192;28;20418;-76
2022/05/26 01:38:21;;;;;;;1.53;1.10;;;;;;;;;;5094841;28;20434;-76
2022/05/26 01:40:46;;;;;;;1.13;0.90;;;;;;;;;;5095222;28;20822;-75
2022/05/26 01:43:21;;;;;;;1.73;0.97;;;;;;;;;;5094642;28;20411;-75
2022/05/26 01:45:58;;;;;;;1.83;1.00;;;;;;;;;;5094884;28;20958;-75
2022/05/26 01:48:27;;;;;;;1.80;1.00;;;;;;;;;;5094815;28;20373;-77
2022/05/26 01:50:56;;;;;;;2.70;1.17;;;;;;;;;;5093822;28;20797;-75
2022/05/26 01:53:22;;;;;;;3.40;1.00;;;;;;;;;;5094417;28;20465;-76
2022/05/26 01:55:48;;;;;;;5.07;1.30;;;;;;;;;;5093519;28;20417;-75
2022/05/26 01:58:19;;;;;;;3.20;1.20;;;;;;;;;;5094507;28;20452;-75
2022/05/26 02:00:45;;;;;;;2.50;1.03;;;;;;;;;;5094561;28;20398;-76
2022/05/26 02:03:17;;;;;;;2.23;1.03;;;;;;;;;;5094135;28;20407;-75
2022/05/26 02:05:47;;;;;;;3.73;0.87;;;;;;;;;;5094713;28;20454;-75
2022/05/26 02:08:20;;;;;;;4.03;1.13;;;;;;;;;;5094284;28;20884;-75
2022/05/26 02:10:55;;;;;;;4.10;1.00;;;;;;;;;;5094386;28;20437;-76
2022/05/26 02:13:25;;;;;;;3.53;0.80;;;;;;;;;;5093787;28;20428;-76
2022/05/26 02:15:56;;;;;;;2.40;0.80;;;;;;;;;;5093082;28;20422;-76
2022/05/26 02:18:23;;;;;;;3.13;1.37;;;;;;;;;;5094259;28;20800;-75
2022/05/26 02:20:54;;;;;;;1.90;1.27;;;;;;;;;;5094301;28;20411;-75
2022/05/26 02:23:29;;;;;;;4.23;1.13;;;;;;;;;;5094012;28;20805;-76
2022/05/26 02:25:55;;;;;;;1.53;0.80;;;;;;;;;;5094186;28;20397;-77
2022/05/26 02:28:21;;;;;;;4.30;0.90;;;;;;;;;;5094176;28;20397;-76
2022/05/26 02:30:48;;;;;;;1.90;1.10;;;;;;;;;;5094133;28;20400;-76
2022/05/26 02:33:15;;;;;;;4.57;1.00;;;;;;;;;;5093350;28;20462;-75
2022/05/26 02:35:43;;;;;;;3.47;0.90;;;;;;;;;;5093923;28;20487;-76
2022/05/26 02:38:13;;;;;;;3.13;1.20;;;;;;;;;;5093546;28;20495;-76
2022/05/26 02:40:39;;;;;;;2.60;1.23;;;;;;;;;;5093832;28;20421;-75
2022/05/26 02:43:14;;;;;;;2.60;1.20;;;;;;;;;;5093551;28;20476;-76
2022/05/26 02:45:48;;;;;;;5.23;1.53;;;;;;;;;;5093428;28;20430;-76
2022/05/26 02:48:27;;;;;;;1.00;0.87;;;;;;;;;;5093650;28;20396;-76
2022/05/26 02:50:59;;;;;;;2.97;1.10;;;;;;;;;;5093593;28;20422;-77
2022/05/26 02:53:30;;;;;;;2.00;0.90;;;;;;;;;;5093342;28;20816;-74
2022/05/26 02:56:10;;;;;;;3.40;1.17;;;;;;;;;;5092349;28;20533;-76
2022/05/26 02:58:57;;;;;;;5.43;1.30;;;;;;;;;;5092260;28;20479;-76
2022/05/26 03:01:33;;;;;;;1.83;1.10;;;;;;;;;;5093706;28;20399;-76
2022/05/26 03:04:03;;;;;;;3.10;1.20;;;;;;;;;;5092977;28;20451;-76
2022/05/26 03:06:32;;;;;;;4.60;1.37;;;;;;;;;;5093450;28;20477;-77
2022/05/26 03:08:59;;;;;;;2.20;1.00;;;;;;;;;;5093564;28;20381;-75
2022/05/26 03:11:27;;;;;;;1.50;0.90;;;;;;;;;;5093581;28;20749;-75
2022/05/26 03:13:53;;;;;;;1.70;1.13;;;;;;;;;;5081192;28;20522;-75
2022/05/26 03:16:19;;;;;;;3.43;1.63;;;;;;;;;;5073080;28;20386;-75
2022/05/26 03:18:46;;;;;;;3.73;1.90;;;;;;;;;;5088515;28;20400;-77
2022/05/26 03:21:12;;;;;;;3.03;1.63;;;;;;;;;;5083468;28;20435;-74
2022/05/26 03:23:39;;;;;;;3.40;1.30;;;;;;;;;;5072723;28;20394;-76
2022/05/26 03:26:05;;;;;;;4.20;2.30;;;;;;;;;;5073270;28;20923;-76
2022/05/26 03:28:31;;;;;;;4.53;1.47;;;;;;;;;;5054826;28;20412;-75
2022/05/26 03:30:57;;;;;;;4.00;1.63;;;;;;;;;;5086842;28;20495;-75
2022/05/26 03:33:24;;;;;;;2.37;1.60;;;;;;;;;;5074861;28;20442;-74
2022/05/26 03:41:22;;;;;;;3.43;1.93;;;;;;;;;;5092943;28;20402;-77
2022/05/26 03:43:50;;;;;;;8.60;2.00;;;;;;;;;;5076217;28;20427;-76
2022/05/26 03:46:16;;;;;;;5.07;1.90;;;;;;;;;;5072744;28;20494;-74
2022/05/26 03:48:42;;;;;;;5.70;2.07;;;;;;;;;;5072664;28;20416;-76
2022/05/26 03:51:08;;;;;;;7.00;1.90;;;;;;;;;;5083961;28;20422;-75
2022/05/26 03:53:34;;;;;;;4.00;1.80;;;;;;;;;;5071456;28;20462;-76
2022/05/26 03:56:04;;;;;;;6.20;2.17;;;;;;;;;;5072484;28;20435;-76
2022/05/26 03:58:31;;;;;;;10.03;2.30;;;;;;;;;;5087292;28;20435;-76
2022/05/26 04:01:01;;;;;;;2.43;2.03;;;;;;;;;;5086614;28;20394;-76
2022/05/26 04:03:28;;;;;;;4.53;4.00;;;;;;;;;;5072206;28;20499;-76
2022/05/26 04:05:55;;;;;;;7.13;2.00;;;;;;;;;;5086747;28;20417;-75
2022/05/26 04:08:21;;;;;;;3.43;1.80;;;;;;;;;;5072309;28;20499;-76
2022/05/26 04:10:47;;;;;;;3.07;1.90;;;;;;;;;;5072706;28;20405;-76
2022/05/26 04:13:14;;;;;;;3.00;2.17;;;;;;;;;;5077862;28;20462;-76
2022/05/26 04:15:40;;;;;;;5.20;1.70;;;;;;;;;;5092561;28;20446;-75
2022/05/26 04:18:06;;;;;;;2.70;1.93;;;;;;;;;;5074807;28;20838;-75
2022/05/26 04:20:32;;;;;;;3.83;1.90;;;;;;;;;;5072915;28;20492;-77
2022/05/26 04:22:58;;;;;;;3.87;2.20;;;;;;;;;;5072038;28;20414;-77
2022/05/26 04:25:25;;;;;;;8.30;2.23;;;;;;;;;;5072231;28;20432;-76
2022/05/26 04:27:53;;;;;;;7.23;2.43;;;;;;;;;;5086952;28;20404;-76
2022/05/26 04:30:19;;;;;;;4.53;2.67;;;;;;;;;;5085161;28;20565;-75
2022/05/26 04:32:45;;;;;;;3.63;2.43;;;;;;;;;;5071851;28;20871;-76
2022/05/26 04:35:11;;;;;;;4.03;2.30;;;;;;;;;;5088713;28;20521;-74
2022/05/26 04:37:37;;;;;;;7.33;2.63;;;;;;;;;;5083612;28;20437;-75
2022/05/26 04:40:04;;;;;;;10.50;3.33;;;;;;;;;;5075612;28;20490;-75
2022/05/26 04:42:30;;;;;;;4.80;2.73;;;;;;;;;;5094034;28;20421;-75
2022/05/26 04:44:57;;;;;;;6.27;2.77;;;;;;;;;;5088603;28;20517;-76
2022/05/26 04:47:23;;;;;;;7.97;3.30;;;;;;;;;;5075776;28;20407;-75
2022/05/26 04:49:49;;;;;;;8.13;2.87;;;;;;;;;;5093966;28;20445;-75
2022/05/26 04:52:18;;;;;;;6.60;3.23;;;;;;;;;;5086550;28;20843;-75
2022/05/26 04:54:44;;;;;;;5.80;3.10;;;;;;;;;;5076164;28;20414;-76
2022/05/26 04:57:11;;;;;;;8.53;4.40;;;;;;;;;;5075437;28;20404;-76
2022/05/26 04:59:37;;;;;;;7.40;3.77;;;;;;;;;;5091020;28;20448;-74
2022/05/26 05:02:04;;;;;;;8.90;3.40;;;;;;;;;;5088723;28;20485;-77
2022/05/26 05:04:30;;;;;;;5.87;3.43;;;;;;;;;;5074973;28;20430;-77
2022/05/26 05:06:56;;;;;;;6.30;3.30;;;;;;;;;;5081960;28;20431;-77
2022/05/26 05:09:23;;;;;;;10.50;3.80;;;;;;;;;;5075413;28;20395;-75
2022/05/26 05:11:49;;;;;;;11.90;3.83;;;;;;;;;;5076125;28;20523;-76
2022/05/26 05:14:16;;;;;;;10.33;3.40;;;;;;;;;;5089777;28;20437;-76
2022/05/26 05:16:43;;;;;;;8.33;3.47;;;;;;;;;;5088764;28;20394;-77
2022/05/26 05:19:10;;;;;;;4.07;2.73;;;;;;;;;;5075074;28;20415;-75
2022/05/26 05:21:40;;;;;;;8.77;3.70;;;;;;;;;;5084815;28;20786;-76
2022/05/26 05:24:14;;;;;;;8.63;3.40;;;;;;;;;;5074627;28;20907;-76
2022/05/26 05:26:43;;;;;;;13.23;4.80;;;;;;;;;;5076931;28;20393;-75
2022/05/26 05:29:11;;;;;;;10.60;3.40;;;;;;;;;;5074865;28;20467;-77
2022/05/26 05:31:40;;;;;;;10.27;4.27;;;;;;;;;;5074951;28;20450;-75
2022/05/26 05:34:10;;;;;;;11.17;3.60;;;;;;;;;;5082796;28;20470;-75
2022/05/26 05:36:38;;;;;;;10.97;4.03;;;;;;;;;;5094819;28;20414;-78
2022/05/26 05:39:04;;;;;;;5.83;3.30;;;;;;;;;;5075413;28;20493;-77
2022/05/26 05:41:32;;;;;;;14.33;4.00;;;;;;;;;;5083125;28;20487;-77
2022/05/26 05:44:00;;;;;;;5.80;3.57;;;;;;;;;;5080681;28;20838;-75
2022/05/26 05:46:33;;;;;;;10.30;4.00;;;;;;;;;;5075074;28;20892;-75
2022/05/26 05:48:59;;;;;;;10.43;4.30;;;;;;;;;;5075309;28;20423;-76
2022/05/26 05:51:25;;;;;;;7.20;4.00;;;;;;;;;;5084349;28;21026;-75
2022/05/26 05:53:51;;;;;;;10.83;3.53;;;;;;;;;;5080804;28;20467;-74
2022/05/26 05:56:17;;;;;;;6.17;3.63;;;;;;;;;;5075818;28;20431;-76
2022/05/26 05:58:43;;;;;;;7.67;3.43;;;;;;;;;;5074519;28;20762;-78
2022/05/26 06:01:09;;;;;;;8.13;3.90;;;;;;;;;;5087007;28;20419;-76
2022/05/26 06:03:36;;;;;;;9.13;4.47;;;;;;;;;;5089916;28;21299;-76
2022/05/26 06:06:03;;;;;;;9.87;3.93;;;;;;;;;;5074537;28;20858;-77
2022/05/26 06:08:29;;;;;;;10.60;4.30;;;;;;;;;;5075783;28;20431;-76
2022/05/26 06:10:55;;;;;;;8.57;3.60;;;;;;;;;;5074277;28;20436;-76
2022/05/26 06:13:21;;;;;;;8.77;4.30;;;;;;;;;;5074343;28;20434;-74
2022/05/26 06:15:47;;;;;;;15.07;4.27;;;;;;;;;;5074026;28;20410;-75
2022/05/26 06:18:16;;;;;;;8.33;3.63;;;;;;;;;;5074453;28;20419;-75
2022/05/26 06:20:42;;;;;;;7.10;4.27;;;;;;;;;;5082009;28;20389;-75
2022/05/26 06:23:08;;;;;;;9.03;3.80;;;;;;;;;;5076712;28;20937;-76
2022/05/26 06:25:34;;;;;;;6.73;3.80;;;;;;;;;;5083662;28;20506;-75
2022/05/26 06:30:44;;;;;;;8.63;4.40;;;;;;;;;;5074132;28;20402;-76
2022/05/26 06:38:41;;;;;;;7.47;4.50;;;;;;;;;;5076776;28;20396;-76
2022/05/26 06:43:58;;;;;;;12.83;5.07;;;;;;;;;;5063497;28;20539;-74
2022/05/26 06:46:24;;;;;;;7.67;4.60;;;;;;;;;;5077620;28;20784;-75
2022/05/26 06:48:50;;;;;;;8.13;4.50;;;;;;;;;;5093745;28;20384;-74
2022/05/26 06:51:16;;;;;;;13.10;5.47;;;;;;;;;;5073095;28;20741;-76
2022/05/26 06:53:42;;;;;;;10.63;4.83;;;;;;;;;;5078573;28;20595;-77
2022/05/26 06:56:09;;;;;;;11.40;4.90;;;;;;;;;;5093775;28;21012;-76
2022/05/26 06:58:35;;;;;;;12.40;5.67;;;;;;;;;;5076585;28;20815;-75
2022/05/26 07:01:01;;;;;;;15.73;5.63;;;;;;;;;;5072685;28;20448;-75
2022/05/26 07:03:27;;;;;;;7.70;4.73;;;;;;;;;;5072416;28;20413;-75
2022/05/26 07:05:54;;;;;;;15.17;5.80;;;;;;;;;;5072969;28;20771;-75
2022/05/26 07:08:20;;;;;;;12.13;5.20;;;;;;;;;;5073407;28;20887;-77
2022/05/26 07:10:47;;;;;;;12.87;5.07;;;;;;;;;;5088790;28;20943;-76
2022/05/26 07:13:14;;;;;;;7.73;4.73;;;;;;;;;;5072900;28;20471;-76
2022/05/26 07:15:40;;;;;;;7.83;4.97;;;;;;;;;;5073992;28;20435;-78
2022/05/26 07:18:06;;;;;;;9.93;5.27;;;;;;;;;;5073964;28;20427;-77
2022/05/26 07:20:34;;;;;;;13.00;5.27;;;;;;;;;;5088172;28;20837;-78
2022/05/26 07:23:00;;;;;;;7.17;4.57;;;;;;;;;;5074915;28;20406;-77
2022/05/26 07:25:26;;;;;;;10.33;5.53;;;;;;;;;;5093009;28;20430;-76
2022/05/26 07:27:52;;;;;;;8.23;5.27;;;;;;;;;;5089449;28;20978;-76
2022/05/26 07:30:18;;;;;;;9.03;4.80;;;;;;;;;;5092728;28;20479;-76
2022/05/26 07:32:44;;;;;;;12.53;5.30;;;;;;;;;;5074455;28;20471;-75
2022/05/26 07:35:10;;;;;;;7.70;4.67;;;;;;;;;;5085200;28;20451;-76
2022/05/26 07:43:08;;;;;;;9.73;5.70;;;;;;;;;;5089338;28;20472;-76
2022/05/26 07:45:34;;;;;;;8.67;5.43;;;;;;;;;;5084195;28;20447;-75
2022/05/26 07:48:00;;;;;;;6.93;5.00;;;;;;;;;;5071657;28;20390;-77
2022/05/26 07:50:26;;;;;;;7.50;4.60;;;;;;;;;;5092305;28;20797;-77
2022/05/26 07:52:52;;;;;;;9.90;5.30;;;;;;;;;;5080924;28;20563;-76
2022/05/26 07:55:19;;;;;;;16.23;4.77;;;;;;;;;;5070393;28;20433;-77
2022/05/26 07:57:45;;;;;;;9.50;4.00;;;;;;;;;;5086943;28;20427;-76
2022/05/26 08:00:12;;;;;;;12.23;5.13;;;;;;;;;;5071533;28;20422;-75
2022/05/26 08:02:39;;;;;;;10.37;5.03;;;;;;;;;;5076316;28;20443;-76
2022/05/26 08:05:06;;;;;;;6.60;4.70;;;;;;;;;;5075297;28;20867;-77
2022/05/26 08:07:32;;;;;;;7.90;4.63;;;;;;;;;;5090706;28;20495;-75
2022/05/26 08:09:58;;;;;;;6.33;4.50;;;;;;;;;;5074299;28;20434;-76
2022/05/26 08:12:24;;;;;;;7.93;4.87;;;;;;;;;;5077991;28;20454;-76
2022/05/26 08:14:51;;;;;;;8.50;5.07;;;;;;;;;;5082594;28;20504;-78
2022/05/26 08:17:19;;;;;;;9.03;3.67;;;;;;;;;;5093619;28;20418;-77
2022/05/26 08:19:45;;;;;;;6.80;3.83;;;;;;;;;;5091854;28;20449;-75
2022/05/26 08:22:12;;;;;;;12.13;4.90;;;;;;;;;;5083113;28;20416;-76
2022/05/26 08:24:38;;;;;;;9.10;3.73;;;;;;;;;;5082499;28;20457;-76
2022/05/26 08:27:05;;;;;;;11.40;4.27;;;;;;;;;;5088985;28;20903;-74
2022/05/26 08:29:31;;;;;;;7.03;4.07;;;;;;;;;;5091744;28;20834;-75
2022/05/26 08:31:57;;;;;;;9.10;4.80;;;;;;;;;;5074290;28;20504;-74
2022/05/26 08:34:23;;;;;;;8.33;4.50;;;;;;;;;;5089810;28;20537;-76
2022/05/26 08:36:49;;;;;;;7.93;3.47;;;;;;;;;;5087055;28;20493;-75
2022/05/26 08:39:15;;;;;;;8.27;3.83;;;;;;;;;;5073857;28;20608;-74
2022/05/26 08:41:46;;;;;;;12.20;4.30;;;;;;;;;;5076242;28;20413;-75
2022/05/26 08:44:15;;;;;;;10.13;3.73;;;;;;;;;;5094878;28;20510;-76
2022/05/26 08:46:45;;;;;;;10.37;3.87;;;;;;;;;;5092807;28;20427;-75
2022/05/26 08:49:17;;;;;;;7.97;3.77;;;;;;;;;;5087025;28;20458;-77
2022/05/26 08:51:55;;;;;;;17.93;3.77;;;;;;;;;;5092138;28;20419;-77
2022/05/26 08:54:27;;;;;;;6.60;3.57;;;;;;;;;;5076026;28;20510;-76
2022/05/26 08:56:55;;;;;;;5.60;3.70;;;;;;;;;;5070275;28;20418;-76
2022/05/26 08:59:23;;;;;;;5.80;2.80;;;;;;;;;;5096042;28;20886;-76
2022/05/26 09:01:50;;;;;;;7.00;3.50;;;;;;;;;;5090831;28;20426;-75
2022/05/26 09:04:16;;;;;;;11.00;4.30;;;;;;;;;;5079574;28;20824;-76
2022/05/26 09:15:06;;;;;;;11.13;3.70;;;;;;;;;;5095284;28;20449;-76
2022/05/26 09:17:32;;;;;;;9.23;3.67;;;;;;;;;;5093596;28;20915;-77
2022/05/26 09:20:00;;;;;;;7.53;4.23;;;;;;;;;;5083453;28;20422;-77
2022/05/26 09:22:41;;;;;;;6.13;3.80;;;;;;;;;;5075161;28;20407;-76
2022/05/26 09:25:11;;;;;;;5.87;3.23;;;;;;;;;;5074714;28;20439;-77
2022/05/26 09:27:37;;;;;;;8.77;3.67;;;;;;;;;;5085944;28;20456;-79
2022/05/26 09:30:22;;;;;;;5.47;3.00;;;;;;;;;;5095482;28;20413;-79
2022/05/26 09:32:48;;;;;;;7.93;2.73;;;;;;;;;;5095118;28;20462;-76
2022/05/26 09:35:15;;;;;;;8.90;3.13;;;;;;;;;;5094901;28;20427;-77
2022/05/26 09:37:45;;;;;;;6.80;3.10;;;;;;;;;;5095235;28;20918;-75
2022/05/26 09:40:14;;;;;;;5.20;3.03;;;;;;;;;;5095151;28;20411;-77
2022/05/26 09:42:42;;;;;;;7.00;2.60;;;;;;;;;;5094127;28;20468;-76
2022/05/26 09:45:11;;;;;;;6.10;3.07;;;;;;;;;;5090159;28;20496;-76
2022/05/26 09:47:39;;;;;;;9.27;3.43;;;;;;;;;;5094944;28;20402;-77
2022/05/26 09:50:07;;;;;;;9.83;3.27;;;;;;;;;;5087157;28;20420;-75
2022/05/26 09:52:42;;;;;;;8.97;3.27;;;;;;;;;;5074702;28;20422;-75
2022/05/26 09:55:19;;;;;;;4.40;2.53;;;;;;;;;;5074452;28;21041;-76
2022/05/26 09:57:45;;;;;;;4.87;2.53;;;;;;;;;;5073186;28;20918;-74
2022/05/26 10:00:15;;;;;;;7.10;2.70;;;;;;;;;;5074564;28;20494;-74
2022/05/26 10:02:41;;;;;;;5.50;2.37;;;;;;;;;;5079734;28;20418;-75
2022/05/26 10:05:37;;;;;;;4.40;2.87;;;;;;;;;;5094066;28;20443;-74
2022/05/26 10:08:06;;;;;;;7.60;2.60;;;;;;;;;;5077872;28;20467;-77
2022/05/26 10:10:35;;;;;;;6.17;2.80;;;;;;;;;;5092155;28;20538;-75
2022/05/26 10:13:18;;;;;;;10.77;3.20;;;;;;;;;;5077885;28;20467;-77
2022/05/26 10:15:53;;;;;;;5.60;2.67;;;;;;;;;;5084683;28;20458;-75
2022/05/26 10:18:30;;;;;;;7.10;3.10;;;;;;;;;;5082026;28;20439;-76
2022/05/26 10:21:08;;;;;;;3.73;1.70;;;;;;;;;;5089068;28;20757;-77
2022/05/26 10:23:40;;;;;;;3.53;1.90;;;;;;;;;;5079694;28;20484;-76
2022/05/26 10:26:06;;;;;;;5.57;2.40;;;;;;;;;;5083070;28;20892;-76
2022/05/26 10:28:46;;;;;;;7.83;2.70;;;;;;;;;;5082925;28;20418;-75
2022/05/26 10:31:24;;;;;;;6.63;2.30;;;;;;;;;;5085127;28;20454;-77
2022/05/26 10:34:09;;;;;;;5.37;2.23;;;;;;;;;;5089272;28;20474;-78
2022/05/26 10:36:45;;;;;;;3.23;1.70;;;;;;;;;;5085605;28;20487;-79
2022/05/26 10:39:50;;;;;;;3.00;1.37;;;;;;;;;;5093600;28;20419;-76
2022/05/26 10:42:22;;;;;;;4.00;2.50;;;;;;;;;;4995459;28;20422;-75
2022/05/26 10:45:05;;;;;;;5.97;1.60;;;;;;;;;;5011751;28;20434;-74
2022/05/26 10:47:36;;;;;;;3.27;1.67;;;;;;;;;;5063459;28;20471;-76
2022/05/26 10:50:07;;;;;;;6.30;1.40;;;;;;;;;;5093506;28;20402;-75
2022/05/26 10:52:36;;;;;;;4.93;1.60;;;;;;;;;;5093567;28;20414;-76
2022/05/26 10:55:09;;;;;;;4.53;1.67;;;;;;;;;;5093556;28;20415;-78
2022/05/26 10:57:44;;;;;;;8.27;1.80;;;;;;;;;;5093663;28;20432;-77
2022/05/26 11:00:14;;;;;;;3.73;1.50;;;;;;;;;;5093705;28;20771;-78
2022/05/26 11:02:58;;;;;;;9.57;2.70;;;;;;;;;;5093520;28;20405;-76
2022/05/26 11:05:38;;;;;;;4.67;1.63;;;;;;;;;;5093539;28;20994;-75
2022/05/26 11:08:23;;;;;;;4.70;1.87;;;;;;;;;;5093352;28;20501;-75
2022/05/26 11:10:52;;;;;;;5.70;2.00;;;;;;;;;;5093647;28;20845;-77
2022/05/26 11:13:21;;;;;;;4.27;1.83;;;;;;;;;;5093294;28;20830;-75
2022/05/26 11:18:39;;;;;;;3.53;1.40;;;;;;;;;;5078791;28;20448;-75
2022/05/26 11:21:05;;;;;;;4.50;1.67;;;;;;;;;;5089891;28;20434;-76
2022/05/26 11:23:35;;;;;;;5.47;1.57;;;;;;;;;;5077278;28;20423;-78
2022/05/26 11:26:22;;;;;;;2.77;1.63;;;;;;;;;;5074723;28;20494;-76
2022/05/26 11:28:50;;;;;;;2.93;1.50;;;;;;;;;;5070374;28;20778;-77
2022/05/26 11:37:04;;;;;;;2.33;1.40;;;;;;;;;;5093076;28;20460;-77
2022/05/26 11:39:35;;;;;;;4.03;1.50;;;;;;;;;;5092622;28;20407;-77
2022/05/26 11:42:03;;;;;;;5.53;1.80;;;;;;;;;;5092791;28;20391;-77
2022/05/26 11:44:54;;;;;;;2.57;1.53;;;;;;;;;;5092601;28;20727;-77
2022/05/26 11:47:31;;;;;;;4.33;1.90;;;;;;;;;;5092960;28;20500;-76
2022/05/26 11:49:57;;;;;;;3.50;1.57;;;;;;;;;;5084932;28;20421;-78
2022/05/26 11:52:46;;;;;;;3.50;1.40;;;;;;;;;;5087262;28;20422;-77
2022/05/26 11:55:31;;;;;;;2.57;1.33;;;;;;;;;;5089979;28;20430;-77
2022/05/26 11:57:57;;;;;;;2.83;1.53;;;;;;;;;;5096889;28;20411;-77
2022/05/26 12:00:35;;;;;;;4.30;2.00;;;;;;;;;;5079536;28;20552;-77
2022/05/26 12:03:23;;;;;;;2.77;1.50;;;;;;;;;;5079428;28;20393;-74
2022/05/26 12:05:57;;;;;;;9.27;1.93;;;;;;;;;;5079447;28;20419;-75
2022/05/26 12:08:25;;;;;;;3.20;1.67;;;;;;;;;;5079252;28;20415;-74
2022/05/26 12:10:54;;;;;;;3.00;1.70;;;;;;;;;;5079505;28;20448;-77
2022/05/26 12:13:20;;;;;;;3.40;2.17;;;;;;;;;;5078970;28;20429;-78
2022/05/26 12:16:04;;;;;;;5.00;2.50;;;;;;;;;;5079200;28;20431;-74
2022/05/26 12:18:38;;;;;;;5.67;2.53;;;;;;;;;;5079504;28;20370;-75
2022/05/26 12:21:12;;;;;;;5.60;2.30;;;;;;;;;;5079239;28;20374;-76
2022/05/26 12:23:38;;;;;;;4.53;2.43;;;;;;;;;;5079011;28;20917;-77
2022/05/26 12:26:22;;;;;;;5.17;2.90;;;;;;;;;;5079071;28;20393;-75
2022/05/26 12:28:48;;;;;;;5.53;2.67;;;;;;;;;;5079170;28;20411;-75
2022/05/26 12:31:14;;;;;;;4.37;2.10;;;;;;;;;;5077729;28;20815;-77
2022/05/26 12:33:54;;;;;;;5.60;2.37;;;;;;;;;;5077282;28;20483;-75
2022/05/26 12:36:35;;;;;;;6.10;1.80;;;;;;;;;;5079003;28;20487;-76
2022/05/26 12:39:19;;;;;;;7.43;2.23;;;;;;;;;;5079137;28;20771;-77
2022/05/26 12:41:56;;;;;;;5.37;1.87;;;;;;;;;;5079326;28;20438;-77
2022/05/26 12:44:22;;;;;;;4.30;2.13;;;;;;;;;;5078505;28;20943;-76
2022/05/26 12:46:53;;;;;;;5.83;2.50;;;;;;;;;;5079163;28;20443;-75
2022/05/26 12:49:28;;;;;;;8.10;2.63;;;;;;;;;;5079222;28;20403;-75
2022/05/26 12:52:07;;;;;;;3.80;2.50;;;;;;;;;;5079097;28;20410;-76
2022/05/26 12:54:40;;;;;;;7.47;3.10;;;;;;;;;;5078445;28;20466;-75
2022/05/26 12:57:09;;;;;;;4.30;2.80;;;;;;;;;;5079003;28;20408;-74
2022/05/26 12:59:35;;;;;;;6.90;3.40;;;;;;;;;;5075628;28;20404;-75
2022/05/26 13:02:02;;;;;;;4.80;2.73;;;;;;;;;;5074315;28;20428;-75
2022/05/26 13:04:32;;;;;;;5.60;3.00;;;;;;;;;;5074994;28;20446;-76
2022/05/26 13:07:00;;;;;;;5.90;2.97;;;;;;;;;;5075434;28;20415;-75
2022/05/26 13:09:28;;;;;;;5.70;3.00;;;;;;;;;;5075471;28;20494;-77
2022/05/26 13:12:01;;;;;;;8.20;3.07;;;;;;;;;;5075775;28;20421;-77
2022/05/26 13:14:33;;;;;;;4.93;2.70;;;;;;;;;;5073769;28;20467;-76
2022/05/26 13:17:00;;;;;;;3.10;2.10;;;;;;;;;;5075550;28;20419;-76
2022/05/26 13:19:27;;;;;;;4.90;2.73;;;;;;;;;;5075302;28;20402;-77
2022/05/26 13:21:54;;;;;;;9.10;2.30;;;;;;;;;;5075288;28;20450;-76
2022/05/26 13:24:23;;;;;;;5.40;1.93;;;;;;;;;;5074997;28;20600;-76
2022/05/26 13:26:55;;;;;;;5.53;2.00;;;;;;;;;;5075243;28;20493;-77
2022/05/26 13:29:21;;;;;;;4.10;1.50;;;;;;;;;;5075355;28;20407;-75
2022/05/26 13:34:34;;;;;;;6.10;1.73;;;;;;;;;;5074425;28;20470;-76
2022/05/26 13:37:19;;;;;;;4.73;1.40;;;;;;;;;;5074956;28;20474;-76
2022/05/26 13:39:46;;;;;;;4.37;1.83;;;;;;;;;;5074731;28;20811;-75
2022/05/26 13:42:12;;;;;;;7.77;2.10;;;;;;;;;;5074708;28;20518;-76
2022/05/26 13:44:43;;;;;;;3.23;1.60;;;;;;;;;;5056464;28;20832;-76
2022/05/26 13:47:11;;;;;;;4.90;1.60;;;;;;;;;;5074964;28;20499;-75
2022/05/26 13:49:39;;;;;;;4.90;1.90;;;;;;;;;;5074961;28;20399;-76
2022/05/26 13:52:14;;;;;;;2.43;1.30;;;;;;;;;;5074858;28;20502;-76
2022/05/26 13:54:52;;;;;;;7.40;1.53;;;;;;;;;;5074536;28;20466;-75
2022/05/26 13:57:21;;;;;;;6.20;2.17;;;;;;;;;;5074841;28;20425;-77
2022/05/26 13:59:49;;;;;;;5.60;1.83;;;;;;;;;;5074864;28;20928;-79
2022/05/26 14:02:19;;;;;;;4.67;1.93;;;;;;;;;;5074861;28;20422;-77
2022/05/26 14:04:56;;;;;;;5.23;1.73;;;;;;;;;;5074059;28;20469;-78
2022/05/26 14:07:34;;;;;;;4.97;2.03;;;;;;;;;;5074875;28;20407;-77
2022/05/26 14:10:01;;;;;;;3.80;1.43;;;;;;;;;;5074594;28;20846;-77
2022/05/26 14:12:28;;;;;;;6.57;1.87;;;;;;;;;;5074438;28;20404;-78
2022/05/26 14:14:55;;;;;;;2.50;1.43;;;;;;;;;;5074048;28;20432;-74
2022/05/26 14:17:58;;;;;;;5.40;1.87;;;;;;;;;;5074274;28;20428;-76
2022/05/26 14:20:25;;;;;;;3.50;1.60;;;;;;;;;;5042014;28;20415;-76
2022/05/26 14:22:54;;;;;;;6.63;1.87;;;;;;;;;;5074281;28;20436;-79
2022/05/26 14:25:21;;;;;;;9.30;1.90;;;;;;;;;;5072734;28;20778;-76
2022/05/26 14:28:08;;;;;;;4.50;1.83;;;;;;;;;;5074210;28;20407;-77
2022/05/26 14:30:45;;;;;;;5.30;1.67;;;;;;;;;;5073938;28;20449;-76
2022/05/26 14:33:31;;;;;;;3.70;1.77;;;;;;;;;;5073403;28;20485;-76
2022/05/26 14:35:58;;;;;;;5.63;1.77;;;;;;;;;;5073756;28;20496;-77
2022/05/26 14:38:24;;;;;;;7.00;2.17;;;;;;;;;;5072433;28;20419;-76
2022/05/26 14:40:52;;;;;;;3.93;1.30;;;;;;;;;;5072570;28;20414;-78
2022/05/26 14:43:19;;;;;;;6.10;1.90;;;;;;;;;;5073449;28;20510;-75
2022/05/26 14:45:45;;;;;;;3.83;1.33;;;;;;;;;;5073493;28;20442;-74
2022/05/26 14:48:11;;;;;;;4.00;1.40;;;;;;;;;;5073535;28;20457;-75
2022/05/26 14:50:37;;;;;;;4.63;1.50;;;;;;;;;;5073700;28;20981;-75
2022/05/26 14:53:05;;;;;;;5.23;1.70;;;;;;;;;;5073260;28;20478;-74
2022/05/26 14:55:33;;;;;;;3.93;1.50;;;;;;;;;;5073325;28;20442;-75
2022/05/26 14:58:04;;;;;;;3.77;1.90;;;;;;;;;;5073465;28;20404;-75
2022/05/26 15:00:31;;;;;;;6.43;1.57;;;;;;;;;;5072009;28;20427;-75
2022/05/26 15:02:58;;;;;;;3.13;1.23;;;;;;;;;;5073172;28;20825;-76
2022/05/26 15:05:24;;;;;;;4.50;1.30;;;;;;;;;;5073150;28;20475;-75
2022/05/26 15:07:51;;;;;;;6.40;1.27;;;;;;;;;;5073277;28;20469;-76
2022/05/26 15:10:17;;;;;;;6.87;1.40;;;;;;;;;;5073307;28;20953;-78
2022/05/26 15:12:44;;;;;;;6.53;1.33;;;;;;;;;;5073332;28;20423;-77
2022/05/26 15:15:13;;;;;;;5.80;1.30;;;;;;;;;;5072900;28;20395;-77
2022/05/26 15:17:39;;;;;;;8.93;2.20;;;;;;;;;;5073041;28;20767;-75
2022/05/26 15:20:06;;;;;;;5.10;1.47;;;;;;;;;;5073390;28;20407;-77
2022/05/26 15:22:33;;;;;;;1.40;1.00;;;;;;;;;;5072696;28;20529;-75
2022/05/26 15:24:59;;;;;;;3.77;1.60;;;;;;;;;;5072764;28;20485;-77
2022/05/26 15:27:27;;;;;;;3.50;1.93;;;;;;;;;;5071669;28;20784;-74
2022/05/26 15:29:53;;;;;;;3.03;1.50;;;;;;;;;;5072934;28;20419;-76
2022/05/26 15:32:30;;;;;;;4.03;1.60;;;;;;;;;;5071670;28;20443;-74
2022/05/26 15:34:56;;;;;;;3.10;1.30;;;;;;;;;;5072648;28;20476;-77
2022/05/26 15:37:22;;;;;;;3.33;1.40;;;;;;;;;;5071631;28;20494;-76